Time;durP1;ratioP1;P1;durP2;ratioP2;P2;SDS_P1;SDS_P2;PMS_P1;PMS_P2;Temp;Humidity;BMP_temperature;BMP_pressure;BME280_temperature;BME280_humidity;BME280_pressure;Samples;Min_cycle;Max_cycle;Signal;HPM_P1;HPM_P2
2022/07/15 00:02:17;;;;;;;2.63;2.43;;;;;;;20.38;59.71;94936.72;5053514;28;20456;-80
2022/07/15 00:04:44;;;;;;;2.90;2.10;;;;;;;20.40;61.05;94934.72;5053441;28;20445;-80
2022/07/15 00:07:11;;;;;;;2.30;2.20;;;;;;;20.37;59.33;94935.06;5072022;28;20446;-84
2022/07/15 00:12:23;;;;;;;2.63;2.43;;;;;;;20.35;60.54;94937.09;5072022;28;20619;-79
2022/07/15 00:14:50;;;;;;;2.73;2.53;;;;;;;20.36;60.89;94936.06;5072385;28;20484;-80
2022/07/15 00:17:17;;;;;;;3.83;2.57;;;;;;;20.39;59.76;94937.53;5072166;28;20451;-79
2022/07/15 00:19:43;;;;;;;3.00;2.77;;;;;;;20.30;60.08;94934.19;5072157;28;20449;-80
2022/07/15 00:22:11;;;;;;;3.10;2.20;;;;;;;20.36;60.29;94937.91;5071811;28;20931;-81
2022/07/15 00:24:38;;;;;;;2.30;2.20;;;;;;;20.28;60.18;94938.03;5071841;28;20453;-80
2022/07/15 00:27:04;;;;;;;2.63;2.43;;;;;;;20.31;60.73;94943.81;5086676;28;20445;-80
2022/07/15 00:29:33;;;;;;;2.73;2.53;;;;;;;20.32;60.35;94942.81;5053302;28;20486;-81
2022/07/15 00:31:59;;;;;;;3.00;2.10;;;;;;;20.35;60.66;94944.25;5072374;28;20440;-80
2022/07/15 00:34:26;;;;;;;3.93;2.77;;;;;;;20.35;60.51;94938.94;5054452;28;21016;-78
2022/07/15 00:36:53;;;;;;;3.70;2.73;;;;;;;20.37;61.43;94945.72;5075866;28;20488;-80
2022/07/15 00:39:20;;;;;;;2.53;2.33;;;;;;;20.37;60.70;94945.72;5075992;28;20429;-80
2022/07/15 00:41:47;;;;;;;4.43;2.80;;;;;;;20.40;60.51;94947.22;5076368;28;20810;-80
2022/07/15 00:44:14;;;;;;;2.90;2.60;;;;;;;20.44;61.11;94943.16;5076228;28;20445;-77
2022/07/15 00:46:42;;;;;;;2.53;2.33;;;;;;;20.50;59.48;94939.72;5075956;28;20445;-81
2022/07/15 00:49:10;;;;;;;2.57;2.13;;;;;;;20.56;60.89;94947.00;5076016;28;20479;-79
2022/07/15 00:51:38;;;;;;;2.77;2.37;;;;;;;20.56;59.37;94938.16;5039907;28;20436;-80
2022/07/15 00:54:06;;;;;;;3.13;2.83;;;;;;;20.51;59.33;94935.22;5075851;28;20501;-79
2022/07/15 00:56:38;;;;;;;2.53;2.33;;;;;;;20.52;60.09;94926.19;5075453;28;20542;-80
2022/07/15 00:59:07;;;;;;;2.70;2.50;;;;;;;20.54;59.91;94922.38;5075612;28;20444;-78
2022/07/15 01:01:34;;;;;;;7.37;2.70;;;;;;;20.54;60.72;94916.22;5075344;28;20447;-79
2022/07/15 01:04:04;;;;;;;3.00;2.73;;;;;;;20.49;59.88;94919.41;5090030;28;20535;-78
2022/07/15 01:06:32;;;;;;;3.30;2.83;;;;;;;20.47;60.12;94912.63;5089778;28;21383;-80
2022/07/15 01:08:59;;;;;;;3.80;2.70;;;;;;;20.46;59.88;94925.13;5075533;28;20446;-79
2022/07/15 01:11:26;;;;;;;2.60;2.40;;;;;;;20.45;59.40;94920.00;5075205;28;20449;-80
2022/07/15 01:13:54;;;;;;;2.93;2.73;;;;;;;20.37;59.93;94911.06;5075558;28;20483;-80
2022/07/15 01:16:21;;;;;;;2.50;2.30;;;;;;;20.42;60.03;94921.19;5075139;28;21006;-80
2022/07/15 01:18:48;;;;;;;2.70;2.50;;;;;;;20.37;59.77;94916.41;5075122;28;20478;-81
2022/07/15 01:21:16;;;;;;;2.53;2.33;;;;;;;20.28;60.55;94914.88;5075459;28;20437;-80
2022/07/15 01:23:43;;;;;;;2.13;1.93;;;;;;;20.20;60.32;94906.97;5074925;28;20452;-80
2022/07/15 01:26:11;;;;;;;2.33;2.10;;;;;;;20.14;60.25;94907.75;5075164;28;20472;-80
2022/07/15 01:28:38;;;;;;;3.37;2.30;;;;;;;20.13;60.93;94910.59;5075199;28;20453;-80
2022/07/15 01:31:05;;;;;;;4.57;2.50;;;;;;;20.11;60.58;94903.63;5074780;28;20498;-80
2022/07/15 01:33:32;;;;;;;2.70;2.47;;;;;;;20.13;60.96;94910.59;5074749;28;20452;-78
2022/07/15 01:35:59;;;;;;;3.20;2.90;;;;;;;20.12;60.67;94907.09;5074797;28;20822;-80
2022/07/15 01:38:27;;;;;;;2.77;2.57;;;;;;;20.13;61.09;94900.78;5074990;28;20472;-80
2022/07/15 01:40:54;;;;;;;4.70;2.30;;;;;;;20.16;60.76;94903.06;5074786;28;20871;-80
2022/07/15 01:43:21;;;;;;;5.53;2.60;;;;;;;20.21;61.20;94900.66;5075154;28;20804;-81
2022/07/15 01:45:48;;;;;;;3.60;2.37;;;;;;;20.25;60.59;94901.94;5074185;28;20525;-80
2022/07/15 01:50:57;;;;;;;2.70;2.47;;;;;;;20.27;61.26;94899.09;5074504;28;20774;-80
2022/07/15 01:53:24;;;;;;;3.23;2.70;;;;;;;20.30;60.88;94907.53;5075164;28;20445;-80
2022/07/15 01:55:53;;;;;;;2.80;2.60;;;;;;;20.36;61.27;94900.59;5074499;28;20928;-78
2022/07/15 01:58:20;;;;;;;2.53;2.33;;;;;;;20.38;59.71;94904.72;5074608;28;20445;-80
2022/07/15 02:00:49;;;;;;;3.10;2.40;;;;;;;20.36;60.29;94911.25;5074539;28;20448;-78
2022/07/15 02:03:16;;;;;;;4.50;2.80;;;;;;;20.39;60.71;94916.22;5074338;28;20527;-80
2022/07/15 02:05:43;;;;;;;2.63;2.43;;;;;;;20.45;60.47;94912.81;5074175;28;20445;-82
2022/07/15 02:08:10;;;;;;;2.60;2.40;;;;;;;20.47;59.87;94912.63;5074523;28;20445;-81
2022/07/15 02:10:40;;;;;;;2.40;2.30;;;;;;;20.36;61.22;94917.41;5074309;28;20444;-79
2022/07/15 02:13:09;;;;;;;4.57;2.83;;;;;;;20.19;62.15;94921.31;5074129;28;20485;-80
2022/07/15 02:15:36;;;;;;;3.50;3.13;;;;;;;20.12;63.15;94917.78;5074369;28;20485;-82
2022/07/15 02:18:03;;;;;;;3.20;3.00;;;;;;;19.86;64.35;94920.94;5074231;28;20479;-80
2022/07/15 02:20:31;;;;;;;3.40;3.10;;;;;;;19.66;64.98;94926.03;5074077;28;20474;-81
2022/07/15 02:22:58;;;;;;;3.40;2.90;;;;;;;19.49;65.82;94927.19;5074435;28;20449;-81
2022/07/15 02:25:26;;;;;;;4.97;4.10;;;;;;;19.29;66.44;94923.41;5073879;28;21022;-80
2022/07/15 02:27:56;;;;;;;6.43;2.97;;;;;;;19.20;67.32;94920.03;5073828;28;20877;-79
2022/07/15 02:30:25;;;;;;;6.80;3.23;;;;;;;19.23;67.75;94918.81;5073959;28;20451;-80
2022/07/15 02:32:52;;;;;;;4.17;3.23;;;;;;;19.25;67.12;94924.78;5073545;28;20872;-79
2022/07/15 02:35:20;;;;;;;4.47;2.90;;;;;;;19.25;66.47;94920.28;5074017;28;20477;-80
2022/07/15 02:37:47;;;;;;;5.10;3.50;;;;;;;19.28;67.19;94924.41;5073479;28;20947;-80
2022/07/15 02:40:14;;;;;;;4.40;3.10;;;;;;;19.17;66.45;94923.88;5073453;28;20457;-80
2022/07/15 02:42:47;;;;;;;2.63;2.30;;;;;;;19.18;67.17;94925.53;5073825;28;20441;-80
2022/07/15 02:45:14;;;;;;;3.20;3.00;;;;;;;19.21;66.85;94923.50;5073742;28;20476;-79
2022/07/15 02:47:42;;;;;;;2.80;2.60;;;;;;;19.19;65.42;94921.84;5054992;28;20943;-79
2022/07/15 02:50:09;;;;;;;4.07;3.10;;;;;;;19.13;65.27;94914.59;5073329;28;20936;-79
2022/07/15 02:52:36;;;;;;;3.10;2.80;;;;;;;19.01;65.16;94921.34;5037778;28;20430;-81
2022/07/15 02:55:03;;;;;;;2.67;2.47;;;;;;;19.01;65.67;94921.34;5073253;28;20927;-79
2022/07/15 02:57:30;;;;;;;2.43;2.23;;;;;;;19.04;65.78;94920.16;5072716;28;20441;-79
2022/07/15 02:59:58;;;;;;;3.40;3.03;;;;;;;19.06;65.77;94908.34;5073255;28;20433;-79
2022/07/15 03:02:24;;;;;;;3.70;3.00;;;;;;;19.10;65.27;94907.00;5073434;28;20453;-80
2022/07/15 03:04:53;;;;;;;3.53;3.23;;;;;;;19.08;66.58;94909.00;5072813;28;20455;-80
2022/07/15 03:07:19;;;;;;;3.10;2.90;;;;;;;19.09;65.52;94910.66;5073189;28;20437;-80
2022/07/15 03:09:46;;;;;;;3.07;2.87;;;;;;;19.12;65.96;94912.97;5072852;28;20953;-80
2022/07/15 03:12:13;;;;;;;5.10;3.20;;;;;;;19.02;66.05;94909.72;5054086;28;20476;-79
2022/07/15 03:14:40;;;;;;;3.07;2.87;;;;;;;19.05;67.56;94909.34;5072717;28;20539;-82
2022/07/15 03:17:08;;;;;;;3.53;2.53;;;;;;;19.14;66.59;94913.59;5072665;28;20487;-80
2022/07/15 03:19:35;;;;;;;4.20;2.80;;;;;;;19.18;66.32;94909.56;5073010;28;20449;-80
2022/07/15 03:22:03;;;;;;;3.30;3.00;;;;;;;19.24;66.06;94904.50;5072698;28;20449;-79
2022/07/15 03:24:30;;;;;;;2.77;2.57;;;;;;;19.25;66.51;94907.00;5072941;28;20823;-79
2022/07/15 03:26:57;;;;;;;4.80;3.10;;;;;;;19.39;66.07;94906.19;5072981;28;20448;-80
2022/07/15 03:29:24;;;;;;;5.13;2.83;;;;;;;19.59;66.01;94901.13;5072652;28;20455;-79
2022/07/15 03:31:51;;;;;;;3.80;3.20;;;;;;;19.82;64.63;94902.88;5072619;28;20533;-78
2022/07/15 03:34:18;;;;;;;3.80;2.60;;;;;;;20.03;64.16;94905.59;5072811;28;20449;-79
2022/07/15 03:36:45;;;;;;;3.67;3.07;;;;;;;20.28;63.08;94893.56;5072801;28;20904;-79
2022/07/15 03:39:13;;;;;;;3.13;2.90;;;;;;;20.61;61.99;94885.91;5072660;28;20455;-80
2022/07/15 03:41:40;;;;;;;3.10;2.30;;;;;;;21.11;60.45;94893.91;5072312;28;20437;-79
2022/07/15 03:44:07;;;;;;;2.60;2.40;;;;;;;21.58;59.10;94888.66;5072594;28;20561;-80
2022/07/15 03:46:34;;;;;;;9.30;2.90;;;;;;;22.08;56.75;94891.19;5072613;28;20498;-80
2022/07/15 03:49:01;;;;;;;2.60;2.40;;;;;;;22.48;55.95;94894.75;5073134;28;20480;-81
2022/07/15 03:51:30;;;;;;;2.60;2.40;;;;;;;22.82;54.00;94891.13;5073106;28;20455;-82
2022/07/15 03:53:58;;;;;;;3.20;2.90;;;;;;;23.09;53.11;94899.97;5054238;28;20528;-80
2022/07/15 03:56:26;;;;;;;3.93;3.10;;;;;;;23.42;52.67;94894.59;5072895;28;20491;-80
2022/07/15 03:58:53;;;;;;;3.20;2.70;;;;;;;23.68;51.76;94893.72;5072893;28;20445;-85
2022/07/15 04:01:20;;;;;;;2.80;2.60;;;;;;;23.92;50.77;94906.44;5072955;28;20867;-82
2022/07/15 04:03:47;;;;;;;5.80;2.70;;;;;;;24.22;49.61;94909.41;5054580;28;20943;-81
2022/07/15 04:06:15;;;;;;;2.70;2.50;;;;;;;24.44;49.27;94903.75;5073178;28;20459;-80
2022/07/15 04:08:41;;;;;;;5.73;3.00;;;;;;;24.66;48.93;94905.06;5072828;28;20780;-80
2022/07/15 04:11:08;;;;;;;3.50;2.67;;;;;;;24.88;48.18;94897.47;5073068;28;20445;-82
2022/07/15 04:13:37;;;;;;;3.10;2.80;;;;;;;25.17;47.61;94904.09;5073293;28;20484;-80
2022/07/15 04:16:04;;;;;;;6.33;2.80;;;;;;;25.43;46.85;94906.50;5072695;28;20484;-81
2022/07/15 04:18:31;;;;;;;3.10;2.80;;;;;;;25.66;46.35;94908.56;5078584;28;20505;-81
2022/07/15 04:20:58;;;;;;;2.80;2.60;;;;;;;25.78;45.31;94912.22;5073062;28;20452;-79
2022/07/15 04:23:25;;;;;;;7.50;2.50;;;;;;;25.84;45.60;94910.50;5072766;28;20976;-84
2022/07/15 04:25:52;;;;;;;4.27;3.13;;;;;;;26.02;45.71;94915.03;5073082;28;20911;-84
2022/07/15 04:28:19;;;;;;;18.20;3.63;;;;;;;26.20;45.99;94909.63;5073391;28;20484;-82
2022/07/15 04:30:47;;;;;;;12.27;3.37;;;;;;;26.34;45.02;94913.84;5072866;28;20449;-83
2022/07/15 04:33:14;;;;;;;2.90;2.70;;;;;;;26.45;44.08;94906.88;5073071;28;20444;-82
2022/07/15 04:35:41;;;;;;;3.07;2.80;;;;;;;26.55;43.97;94912.50;5072943;28;20852;-82
2022/07/15 04:38:08;;;;;;;9.30;4.10;;;;;;;26.75;43.46;94920.31;5087930;28;20781;-88
2022/07/15 04:40:36;;;;;;;4.77;2.93;;;;;;;26.90;43.08;94918.03;5054766;28;20444;-86
2022/07/15 04:43:03;;;;;;;2.93;2.73;;;;;;;27.03;43.02;94923.25;5073852;28;20433;-87
2022/07/15 04:45:30;;;;;;;8.93;3.03;;;;;;;27.21;42.17;94929.59;5073021;28;20433;-81
2022/07/15 04:47:58;;;;;;;3.03;2.80;;;;;;;27.27;41.46;94925.97;5072948;28;20855;-86
2022/07/15 04:53:09;;;;;;;3.60;2.57;;;;;;;27.61;42.76;94916.25;5072559;28;20436;-82
2022/07/15 04:55:36;;;;;;;3.40;3.07;;;;;;;27.69;42.14;94914.03;5073077;28;20440;-82
2022/07/15 04:58:03;;;;;;;2.97;2.70;;;;;;;27.88;41.48;94924.72;5072520;28;20441;-82
2022/07/15 05:00:30;;;;;;;3.83;3.00;;;;;;;27.92;40.71;94917.78;5072457;28;20453;-80
2022/07/15 05:02:58;;;;;;;4.00;3.30;;;;;;;28.08;41.01;94922.47;5072973;28;20449;-79
2022/07/15 05:05:25;;;;;;;5.30;3.10;;;;;;;28.19;40.55;94913.50;5072753;28;20457;-79
2022/07/15 05:07:52;;;;;;;2.50;2.30;;;;;;;28.39;40.46;94921.25;5072568;28;20455;-80
2022/07/15 05:10:18;;;;;;;2.63;2.53;;;;;;;28.49;40.14;94923.31;5072607;28;20531;-82
2022/07/15 05:12:45;;;;;;;7.83;2.73;;;;;;;28.60;41.23;94915.16;5072193;28;20476;-80
2022/07/15 05:15:12;;;;;;;2.53;2.33;;;;;;;28.77;39.71;94915.19;5072292;28;21097;-80
2022/07/15 05:17:41;;;;;;;4.40;2.60;;;;;;;29.03;39.25;94918.38;5071796;28;20469;-80
2022/07/15 05:20:10;;;;;;;4.73;3.17;;;;;;;29.15;38.52;94919.13;5073792;28;20480;-80
2022/07/15 05:22:37;;;;;;;5.00;4.30;;;;;;;29.23;38.29;94916.03;5076275;28;20461;-80
2022/07/15 05:25:04;;;;;;;8.10;3.40;;;;;;;29.35;38.94;94914.06;5076480;28;20449;-83
2022/07/15 05:27:31;;;;;;;9.60;4.07;;;;;;;29.48;53.33;94918.34;5076078;28;20448;-79
2022/07/15 05:29:58;;;;;;;9.20;3.30;;;;;;;29.59;40.00;94918.25;5076498;28;20451;-79
2022/07/15 05:32:25;;;;;;;11.20;3.40;;;;;;;29.73;38.60;94917.91;5086148;28;20458;-79
2022/07/15 05:34:51;;;;;;;6.23;3.70;;;;;;;29.50;40.02;94914.34;5082121;28;20452;-79
2022/07/15 05:37:20;;;;;;;5.03;4.30;;;;;;;28.89;41.01;94915.97;5059739;28;20827;-79
2022/07/15 05:39:54;;;;;;;7.43;3.30;;;;;;;28.33;42.43;94909.50;5088280;28;20506;-79
2022/07/15 05:42:21;;;;;;;6.43;4.00;;;;;;;27.70;43.71;94915.69;5096296;28;20997;-87
2022/07/15 05:44:47;;;;;;;6.53;4.03;;;;;;;27.64;45.58;94915.81;5095934;28;20981;-85
2022/07/15 05:47:14;;;;;;;6.00;3.33;;;;;;;27.56;45.41;94913.44;5096101;28;20432;-84
2022/07/15 05:49:41;;;;;;;10.87;4.20;;;;;;;27.56;45.74;94914.28;5091909;28;20455;-85
2022/07/15 05:52:08;;;;;;;6.33;4.20;;;;;;;27.52;45.11;94901.50;5096316;28;20433;-84
2022/07/15 05:54:37;;;;;;;5.43;3.67;;;;;;;27.77;45.81;94911.00;5095918;28;20493;-83
2022/07/15 05:57:05;;;;;;;10.67;3.60;;;;;;;27.74;44.45;94911.47;5091195;28;20573;-82
2022/07/15 06:06:24;;;;;;;30.83;6.03;;;;;;;28.04;44.08;94911.31;5083002;28;20467;-82
2022/07/15 06:08:51;;;;;;;11.30;4.53;;;;;;;28.14;43.72;94910.72;5075436;28;20495;-84
2022/07/15 06:11:19;;;;;;;4.00;3.60;;;;;;;28.50;44.42;94909.56;5075745;28;20429;-85
2022/07/15 06:13:46;;;;;;;4.80;3.87;;;;;;;28.71;42.86;94910.78;5075774;28;20476;-85
2022/07/15 06:16:13;;;;;;;6.70;4.20;;;;;;;28.79;40.90;94906.84;5089976;28;20945;-85
2022/07/15 06:18:39;;;;;;;10.37;4.30;;;;;;;28.76;41.38;94916.25;5075396;28;20449;-82
2022/07/15 06:21:06;;;;;;;8.17;4.27;;;;;;;28.81;43.18;94908.25;5075234;28;20426;-84
2022/07/15 06:23:33;;;;;;;8.03;4.53;;;;;;;28.78;41.41;94916.84;5056720;28;20436;-84
2022/07/15 06:26:00;;;;;;;5.93;4.30;;;;;;;28.55;40.88;94911.53;5075299;28;20435;-84
2022/07/15 06:32:08;;;;;;;10.33;4.30;;;;;;;28.52;42.27;94906.63;5075110;28;20412;-84
2022/07/15 06:34:35;;;;;;;5.17;4.27;;;;;;;28.45;43.24;94905.94;5055150;28;20491;-85
2022/07/15 06:37:02;;;;;;;5.23;4.00;;;;;;;28.49;41.89;94912.50;5054850;28;20979;-84
2022/07/15 06:39:29;;;;;;;9.67;3.90;;;;;;;28.63;41.93;94913.88;5069975;28;20446;-82
2022/07/15 06:41:55;;;;;;;9.20;4.20;;;;;;;28.81;40.62;94913.66;5054128;28;20443;-84
2022/07/15 06:44:22;;;;;;;5.60;4.00;;;;;;;28.80;41.73;94920.13;5055234;28;20248;-83
2022/07/15 06:46:49;;;;;;;7.10;3.70;;;;;;;28.87;40.86;94915.41;5054900;28;20448;-83
2022/07/15 06:49:17;;;;;;;5.50;3.70;;;;;;;28.97;40.03;94909.38;5055354;28;20434;-81
2022/07/15 06:51:44;;;;;;;6.33;3.93;;;;;;;29.09;39.34;94906.59;5036732;28;20434;-83
2022/07/15 06:54:11;;;;;;;4.20;3.80;;;;;;;28.92;41.57;94904.72;5054661;28;20505;-83
2022/07/15 06:56:38;;;;;;;10.93;4.00;;;;;;;28.77;41.87;94909.81;5035946;28;21317;-81
2022/07/15 06:59:05;;;;;;;5.80;3.50;;;;;;;28.89;41.16;94901.66;5054459;28;20912;-84
2022/07/15 07:01:32;;;;;;;8.37;4.03;;;;;;;28.92;40.95;94902.00;5054288;28;20462;-81
2022/07/15 07:03:59;;;;;;;8.40;3.53;;;;;;;29.25;39.59;94905.81;5054237;28;20453;-83
2022/07/15 07:06:27;;;;;;;7.00;3.57;;;;;;;29.30;39.76;94900.47;5054186;28;20445;-84
2022/07/15 07:08:55;;;;;;;103.87;13.80;;;;;;;29.32;40.18;94905.63;5054381;28;20430;-83
2022/07/15 07:11:21;;;;;;;32.30;6.70;;;;;;;29.34;39.07;94904.31;5054929;28;20924;-83
2022/07/15 07:13:49;;;;;;;19.80;6.13;;;;;;;29.50;37.81;94903.53;5054692;28;20477;-83
2022/07/15 07:16:15;;;;;;;10.77;3.63;;;;;;;29.52;38.09;94901.41;5054332;28;20441;-82
2022/07/15 07:18:44;;;;;;;49.43;8.80;;;;;;;29.72;38.14;94900.84;5052847;28;20433;-82
2022/07/15 07:21:11;;;;;;;59.50;10.60;;;;;;;29.93;40.01;94899.25;5053114;28;20449;-82
2022/07/15 07:23:40;;;;;;;8.20;3.90;;;;;;;30.08;38.50;94906.81;5052726;28;20460;-84
2022/07/15 07:26:08;;;;;;;6.17;4.17;;;;;;;30.12;38.42;94897.94;5052517;28;20887;-82
2022/07/15 07:28:35;;;;;;;13.40;3.97;;;;;;;30.32;37.83;94901.94;5033968;28;20491;-83
2022/07/15 07:31:02;;;;;;;7.77;3.70;;;;;;;30.52;38.57;94894.06;5052797;28;20454;-80
2022/07/15 07:33:29;;;;;;;7.23;3.60;;;;;;;30.10;37.65;94893.84;5052836;28;20904;-82
2022/07/15 07:35:56;;;;;;;4.73;3.60;;;;;;;29.91;38.14;94904.09;5052331;28;20449;-82
2022/07/15 07:38:23;;;;;;;6.70;3.57;;;;;;;29.59;37.46;94885.00;5052277;28;20485;-82
2022/07/15 07:40:52;;;;;;;3.93;3.33;;;;;;;29.88;36.74;94888.38;5017478;28;20441;-83
2022/07/15 07:43:20;;;;;;;4.97;3.00;;;;;;;29.76;36.74;94884.94;5052110;28;20475;-82
2022/07/15 07:45:47;;;;;;;6.47;3.40;;;;;;;30.01;37.52;94882.56;5017246;28;20444;-80
2022/07/15 07:48:14;;;;;;;3.73;3.13;;;;;;;29.88;36.37;94877.56;5052152;28;20445;-82
2022/07/15 07:50:41;;;;;;;3.00;2.80;;;;;;;29.96;35.87;94884.41;5066858;28;20449;-83
2022/07/15 07:53:08;;;;;;;3.63;3.30;;;;;;;30.16;37.24;94885.53;5052367;28;20449;-83
2022/07/15 07:55:35;;;;;;;9.53;3.57;;;;;;;30.37;37.86;94883.06;5066730;28;20454;-82
2022/07/15 07:58:03;;;;;;;3.77;3.30;;;;;;;30.41;37.35;94882.31;5052337;28;20497;-84
2022/07/15 08:00:31;;;;;;;4.00;2.80;;;;;;;30.53;37.22;94879.44;5052643;28;20441;-83
2022/07/15 08:03:00;;;;;;;6.67;3.03;;;;;;;30.68;36.70;94882.34;5052255;28;20442;-83
2022/07/15 08:05:28;;;;;;;4.13;3.37;;;;;;;30.69;34.84;94889.41;5052201;28;20453;-82
2022/07/15 08:08:07;;;;;;;4.97;2.90;;;;;;;30.81;33.83;94890.06;5052275;28;20457;-82
2022/07/15 08:10:34;;;;;;;2.90;2.70;;;;;;;30.88;33.70;94889.03;5052032;28;20452;-82
2022/07/15 08:13:03;;;;;;;3.23;2.90;;;;;;;30.98;34.76;94881.81;5051755;28;20477;-82
2022/07/15 08:15:29;;;;;;;22.47;6.20;;;;;;;31.16;34.94;94875.22;5052421;28;20488;-83
2022/07/15 08:17:57;;;;;;;3.90;3.60;;;;;;;31.14;33.56;94880.06;5051930;28;20478;-83
2022/07/15 08:20:24;;;;;;;5.03;3.17;;;;;;;30.97;33.63;94879.38;5051957;28;20794;-82
2022/07/15 08:22:57;;;;;;;3.90;3.03;;;;;;;31.00;35.99;94873.44;5052245;28;20446;-83
2022/07/15 08:25:24;;;;;;;5.10;2.90;;;;;;;31.05;33.69;94873.47;5052024;28;20446;-82
2022/07/15 08:27:51;;;;;;;5.13;2.90;;;;;;;31.12;34.93;94876.78;5051718;28;20449;-82
2022/07/15 08:30:19;;;;;;;4.30;3.17;;;;;;;31.06;34.92;94875.94;5053310;28;20434;-82
2022/07/15 08:32:46;;;;;;;5.90;3.13;;;;;;;30.87;35.52;94873.84;5053308;28;20771;-83
2022/07/15 08:35:13;;;;;;;3.17;2.87;;;;;;;30.49;33.62;94872.91;5053769;28;20460;-79
2022/07/15 08:37:39;;;;;;;4.13;2.77;;;;;;;30.36;35.56;94868.72;5053573;28;20481;-81
2022/07/15 08:40:08;;;;;;;7.75;3.15;;;;;;;30.40;34.67;94872.53;5052541;28;20443;-80
2022/07/15 08:42:36;;;;;;;28.23;4.50;;;;;;;30.58;35.09;94871.34;5053416;28;20249;-81
2022/07/15 08:45:03;;;;;;;12.20;4.90;;;;;;;30.72;37.92;94872.63;5052950;28;20445;-83
2022/07/15 08:47:32;;;;;;;3.00;2.80;;;;;;;30.98;34.14;94867.47;5034806;28;20445;-83
2022/07/15 08:56:45;;;;;;;6.50;4.00;;;;;;;31.66;34.58;94855.78;5055314;28;20811;-86
2022/07/15 08:59:12;;;;;;;2.87;2.67;;;;;;;31.55;34.48;94856.00;5056689;28;20457;-88
2022/07/15 09:01:43;;;;;;;10.27;3.87;;;;;;;31.36;35.93;94844.72;5056901;28;20773;-81
2022/07/15 09:04:11;;;;;;;6.30;3.40;;;;;;;31.30;35.71;94851.22;5057433;28;20844;-83
2022/07/15 09:06:40;;;;;;;10.77;2.90;;;;;;;31.22;35.85;94854.38;5056473;28;20908;-84
2022/07/15 09:09:25;;;;;;;5.63;2.80;;;;;;;31.11;34.58;94851.56;5057594;28;20434;-83
2022/07/15 09:11:58;;;;;;;3.67;3.10;;;;;;;31.10;35.01;94851.81;5057010;28;20453;-83
2022/07/15 09:14:28;;;;;;;10.20;5.23;;;;;;;31.26;36.18;94848.19;5057064;28;20784;-82
2022/07/15 09:17:06;;;;;;;5.53;3.63;;;;;;;31.38;34.48;94842.56;5056541;28;20441;-82
2022/07/15 09:19:57;;;;;;;5.03;3.60;;;;;;;31.52;35.20;94842.97;5056825;28;20434;-80
2022/07/15 09:22:24;;;;;;;7.13;3.37;;;;;;;31.63;34.90;94842.75;5056688;28;20434;-81
2022/07/15 09:25:01;;;;;;;9.60;3.17;;;;;;;31.55;35.45;94837.81;5056750;28;20494;-84
2022/07/15 09:27:29;;;;;;;4.33;2.73;;;;;;;31.24;35.21;94831.38;5056860;28;20445;-81
2022/07/15 09:38:13;;;;;;;8.00;4.20;;;;;;;31.46;36.08;94835.84;5055752;28;20483;-80
2022/07/15 09:40:48;;;;;;;7.67;3.60;;;;;;;31.29;35.84;94830.59;5055803;28;20438;-80
2022/07/15 09:43:15;;;;;;;6.70;4.40;;;;;;;31.18;36.38;94832.41;5056181;28;20446;-79
2022/07/15 09:45:42;;;;;;;5.93;3.23;;;;;;;31.01;36.79;94824.38;5056069;28;20433;-79
2022/07/15 09:48:12;;;;;;;3.30;3.00;;;;;;;30.88;34.94;94822.09;5056274;28;20499;-81
2022/07/15 09:50:40;;;;;;;9.60;3.87;;;;;;;30.79;35.94;94827.19;5056088;28;20993;-80
2022/07/15 09:53:12;;;;;;;3.50;3.20;;;;;;;30.30;36.05;94822.84;5056258;28;20448;-81
2022/07/15 09:55:41;;;;;;;4.60;3.53;;;;;;;30.35;36.85;94825.59;5055797;28;20434;-84
2022/07/15 09:58:08;;;;;;;3.40;3.10;;;;;;;30.35;36.00;94818.31;5055940;28;20489;-81
2022/07/15 10:00:35;;;;;;;5.50;3.10;;;;;;;30.08;35.00;94818.31;5056565;28;20465;-81
2022/07/15 10:03:02;;;;;;;6.00;3.67;;;;;;;30.16;35.90;94814.31;5055640;28;20437;-85
2022/07/15 10:05:30;;;;;;;3.80;2.87;;;;;;;30.08;34.82;94810.19;5055299;28;20920;-87
2022/07/15 10:08:03;;;;;;;5.10;3.00;;;;;;;30.11;35.01;94814.28;5055515;28;20439;-86
2022/07/15 10:14:12;;;;;;;8.87;3.40;;;;;;;30.44;37.64;94821.38;5047275;28;20480;-87
2022/07/15 10:17:11;;;;;;;3.03;2.73;;;;;;;30.28;35.98;94823.09;5055538;28;20425;-86
2022/07/15 10:20:02;;;;;;;3.87;2.97;;;;;;;30.34;37.28;94822.09;5055836;28;20445;-87
2022/07/15 10:33:17;;;;;;;11.10;3.13;;;;;;;30.31;33.81;94819.06;5067935;28;20431;-86
2022/07/15 10:35:47;;;;;;;3.90;2.70;;;;;;;30.29;36.13;94810.38;5075606;28;20800;-87
2022/07/15 10:38:29;;;;;;;2.70;2.50;;;;;;;30.14;34.28;94808.34;5074339;28;20871;-85
2022/07/15 10:41:07;;;;;;;3.50;3.10;;;;;;;30.01;35.11;94797.88;5074717;28;20912;-86
2022/07/15 10:47:27;;;;;;;3.27;3.07;;;;;;;29.96;33.98;94793.22;5074722;28;20438;-86
2022/07/15 10:49:55;;;;;;;7.00;3.20;;;;;;;30.07;34.14;94799.56;4993437;28;21284;-85
2022/07/15 10:52:24;;;;;;;8.40;3.57;;;;;;;30.12;34.65;94792.34;4993382;28;20951;-87
2022/07/15 10:55:00;;;;;;;3.50;3.20;;;;;;;29.98;34.54;94779.44;4993265;28;20487;-86
2022/07/15 10:57:54;;;;;;;5.00;3.40;;;;;;;30.02;33.73;94794.09;4992978;28;20443;-86
2022/07/15 11:00:32;;;;;;;5.20;3.10;;;;;;;29.45;33.52;94781.75;4993609;28;20453;-85
2022/07/15 11:03:08;;;;;;;3.37;3.17;;;;;;;29.82;35.48;94789.28;4993682;28;20447;-85
2022/07/15 11:05:43;;;;;;;3.60;2.60;;;;;;;29.89;32.78;94793.41;4993072;28;20517;-85
2022/07/15 11:09:03;;;;;;;7.10;3.43;;;;;;;29.89;33.52;94788.00;4992314;28;20873;-86
2022/07/15 11:11:50;;;;;;;3.87;3.10;;;;;;;30.12;32.90;94792.34;4878745;29;20460;-86
2022/07/15 11:14:46;;;;;;;5.03;3.80;;;;;;;30.31;33.90;94783.88;4879712;29;20484;-86
2022/07/15 11:17:16;;;;;;;8.53;3.57;;;;;;;30.50;33.33;94782.44;4878998;29;20459;-85
2022/07/15 11:19:46;;;;;;;6.30;3.93;;;;;;;30.67;33.12;94777.78;4879956;29;20494;-85
2022/07/15 11:22:14;;;;;;;3.60;3.30;;;;;;;30.86;33.21;94780.88;4878099;29;20464;-85
2022/07/15 11:24:41;;;;;;;4.27;3.00;;;;;;;31.00;31.66;94776.69;4934383;29;20438;-84
2022/07/15 11:27:09;;;;;;;3.83;2.80;;;;;;;31.16;30.96;94777.59;4954174;29;20435;-87
2022/07/15 11:29:47;;;;;;;6.60;2.73;;;;;;;31.25;29.95;94776.06;4954112;29;20442;-85
2022/07/15 11:32:16;;;;;;;3.07;2.80;;;;;;;31.26;30.68;94769.56;4954022;29;20450;-85
2022/07/15 11:34:44;;;;;;;4.57;3.40;;;;;;;31.30;29.46;94776.09;4953919;29;20874;-87
2022/07/15 11:37:18;;;;;;;2.87;2.67;;;;;;;31.24;30.23;94771.72;4922090;29;20446;-85
2022/07/15 11:39:47;;;;;;;6.50;2.97;;;;;;;31.26;30.03;94772.28;4953720;29;20494;-83
2022/07/15 11:45:08;;;;;;;3.20;3.00;;;;;;;31.38;30.03;94755.78;4978911;28;20427;-86
2022/07/15 11:47:35;;;;;;;4.60;3.13;;;;;;;31.42;28.42;94762.31;4977373;28;20796;-85
2022/07/15 11:50:05;;;;;;;3.50;3.20;;;;;;;31.47;29.66;94753.38;5035397;28;20446;-88
2022/07/15 11:52:32;;;;;;;8.13;3.60;;;;;;;31.47;29.99;94756.09;5053858;28;20441;-85
2022/07/15 11:55:06;;;;;;;4.20;3.57;;;;;;;31.52;30.12;94750.72;5054169;28;20435;-86
2022/07/15 11:57:34;;;;;;;4.93;3.90;;;;;;;31.48;28.67;94744.97;5054109;28;20453;-85
2022/07/15 12:03:23;;;;;;;3.90;3.60;;;;;;;31.51;28.78;94740.91;5053432;28;20457;-87
2022/07/15 12:06:12;;;;;;;4.20;3.70;;;;;;;31.61;30.79;94749.13;5053442;28;20456;-86
2022/07/15 12:08:43;;;;;;;3.50;3.30;;;;;;;31.61;28.70;94743.69;5011702;28;20817;-85
2022/07/15 12:11:18;;;;;;;5.27;3.50;;;;;;;31.44;29.99;94739.28;5011665;28;20447;-87
2022/07/15 12:13:51;;;;;;;7.50;3.90;;;;;;;31.31;28.18;94739.75;5011084;28;20537;-87
2022/07/15 12:16:22;;;;;;;5.67;4.03;;;;;;;31.34;29.70;94743.84;5011406;28;20440;-87
2022/07/15 12:18:50;;;;;;;4.83;4.10;;;;;;;31.19;28.56;94736.41;5011603;28;20487;-85
2022/07/15 12:21:17;;;;;;;5.10;4.60;;;;;;;31.05;30.67;94746.06;4979361;28;20585;-85
2022/07/15 12:23:59;;;;;;;5.03;4.63;;;;;;;31.08;29.11;94745.53;5011480;28;20462;-85
2022/07/15 12:26:28;;;;;;;10.47;5.10;;;;;;;31.06;30.19;94728.72;5011318;28;20543;-85
2022/07/15 12:28:56;;;;;;;4.23;3.93;;;;;;;31.14;30.46;94731.75;5012084;28;20440;-84
2022/07/15 12:31:27;;;;;;;4.83;4.43;;;;;;;31.03;30.24;94732.78;5015676;28;20454;-83
2022/07/15 12:33:54;;;;;;;5.00;4.60;;;;;;;30.99;30.66;94739.81;4999145;28;20443;-85
2022/07/15 12:36:23;;;;;;;5.20;4.77;;;;;;;31.01;31.53;94743.06;5015384;28;20455;-86
2022/07/15 12:39:08;;;;;;;5.47;4.97;;;;;;;30.89;29.75;94736.19;5015278;28;21247;-85